createdAt,value
2018-11-04T00:00:31.715Z,30.03
2018-11-04T00:03:00.424Z,30.03
2018-11-04T00:05:29.130Z,28.87
2018-11-04T00:07:57.987Z,33.73
2018-11-04T00:10:26.588Z,37.27
2018-11-04T00:12:55.592Z,49.33
2018-11-04T00:15:24.304Z,49.23
2018-11-04T00:17:53.277Z,52.13
2018-11-04T00:20:22.002Z,56.70
2018-11-04T00:22:50.943Z,50.50
2018-11-04T00:25:19.631Z,50.67
2018-11-04T00:27:48.340Z,50.87
2018-11-04T00:30:17.036Z,52.80
2018-11-04T00:32:45.980Z,53.85
2018-11-04T00:35:14.684Z,51.53
2018-11-04T00:37:43.412Z,46.53
2018-11-04T00:40:12.111Z,40.00
2018-11-04T00:42:41.664Z,38.53
2018-11-04T00:45:10.692Z,32.90
2018-11-04T00:47:39.831Z,30.47
2018-11-04T00:50:14.171Z,31.90
2018-11-04T00:52:43.163Z,33.40
2018-11-04T00:55:12.284Z,33.03
2018-11-04T00:57:41.344Z,31.77
2018-11-04T01:00:14.379Z,32.33
2018-11-04T01:02:44.350Z,33.00
2018-11-04T01:05:13.064Z,32.40
2018-11-04T01:07:41.775Z,39.70
2018-11-04T01:10:11.177Z,29.93
2018-11-04T01:12:40.313Z,31.50
2018-11-04T01:15:10.020Z,29.83
2018-11-04T01:17:38.963Z,26.47
2018-11-04T01:20:09.392Z,28.23
2018-11-04T01:22:38.140Z,31.67
2018-11-04T01:25:07.220Z,29.97
2018-11-04T01:27:35.923Z,30.47
2018-11-04T01:30:06.098Z,32.17
2018-11-04T01:32:34.806Z,33.73
2018-11-04T01:35:03.497Z,30.20
2018-11-04T01:37:32.388Z,28.57
2018-11-04T01:40:01.380Z,27.97
2018-11-04T01:42:30.488Z,27.00
2018-11-04T01:44:59.191Z,30.77
2018-11-04T01:47:27.909Z,31.13
2018-11-04T01:49:56.932Z,33.40
2018-11-04T01:52:25.633Z,29.47
2018-11-04T01:54:54.832Z,30.20
2018-11-04T01:57:23.553Z,31.07
2018-11-04T01:59:52.254Z,27.47
2018-11-04T02:02:21.227Z,29.57
2018-11-04T02:04:49.932Z,30.27
2018-11-04T02:07:18.636Z,29.37
2018-11-04T02:09:47.412Z,27.87
2018-11-04T02:12:16.127Z,26.60
2018-11-04T02:14:44.867Z,27.97
2018-11-04T02:17:13.564Z,27.58
2018-11-04T02:19:42.288Z,29.93
2018-11-04T02:25:12.263Z,30.80
2018-11-04T02:27:41.472Z,26.57
2018-11-04T02:30:13.001Z,27.90
2018-11-04T02:32:42.600Z,28.80
2018-11-04T02:35:11.529Z,28.30
2018-11-04T02:37:40.965Z,27.53
2018-11-04T02:40:10.120Z,27.15
2018-11-04T02:42:38.832Z,25.57
2018-11-04T02:45:07.934Z,26.77
2018-11-04T02:47:37.030Z,27.23
2018-11-04T02:50:06.418Z,25.63
2018-11-04T02:52:35.152Z,24.43
2018-11-04T02:55:03.890Z,25.63
2018-11-04T02:57:32.592Z,27.87
2018-11-04T03:00:01.311Z,29.77
2018-11-04T03:02:30.005Z,24.27
2018-11-04T03:04:59.096Z,24.70
2018-11-04T03:07:27.871Z,25.20
2018-11-04T03:09:56.573Z,26.13
2018-11-04T03:12:25.414Z,25.00
2018-11-04T03:14:54.125Z,22.73
2018-11-04T03:17:22.834Z,23.87
2018-11-04T03:19:51.552Z,22.33
2018-11-04T03:22:20.268Z,24.05
2018-11-04T03:24:49.620Z,23.10
2018-11-04T03:27:18.439Z,23.30
2018-11-04T03:29:47.132Z,25.17
2018-11-04T03:32:16.232Z,22.70
2018-11-04T03:34:45.102Z,23.83
2018-11-04T03:37:13.808Z,23.43
2018-11-04T03:39:42.903Z,30.97
2018-11-04T03:42:11.772Z,25.10
2018-11-04T03:44:40.576Z,25.40
2018-11-04T03:47:09.283Z,26.50
2018-11-04T03:49:38.280Z,24.43
2018-11-04T03:52:07.393Z,26.07
2018-11-04T03:54:36.104Z,22.47
2018-11-04T03:57:05.304Z,23.60
2018-11-04T03:59:34.025Z,23.30
2018-11-04T04:02:02.740Z,24.03
2018-11-04T04:04:31.444Z,25.23
2018-11-04T04:07:00.152Z,24.87
2018-11-04T04:09:28.868Z,23.23
2018-11-04T04:11:57.846Z,26.50
2018-11-04T04:14:26.561Z,22.30
2018-11-04T04:16:55.348Z,24.20
2018-11-04T04:19:24.007Z,24.40
2018-11-04T04:21:52.717Z,24.50
2018-11-04T04:24:21.624Z,24.10
2018-11-04T04:26:50.392Z,23.67
2018-11-04T04:29:19.368Z,22.22
2018-11-04T04:31:48.096Z,25.60
2018-11-04T04:34:16.784Z,22.93
2018-11-04T04:36:45.495Z,23.30
2018-11-04T04:39:14.210Z,24.37
2018-11-04T04:41:42.921Z,22.03
2018-11-04T04:44:11.612Z,24.35
2018-11-04T04:46:40.328Z,22.27
2018-11-04T04:49:09.332Z,23.30
2018-11-04T04:51:38.198Z,22.97
2018-11-04T04:54:06.915Z,25.00
2018-11-04T04:56:35.783Z,27.60
2018-11-04T04:59:06.049Z,24.57
2018-11-04T05:01:34.932Z,24.67
2018-11-04T05:04:04.815Z,24.02
2018-11-04T05:06:33.546Z,24.77
2018-11-04T05:09:02.292Z,24.03
2018-11-04T05:11:31.009Z,23.80
2018-11-04T05:14:00.176Z,25.13
2018-11-04T05:16:28.912Z,22.70
2018-11-04T05:18:57.616Z,24.90
2018-11-04T05:21:26.436Z,24.37
2018-11-04T05:23:55.170Z,23.87
2018-11-04T05:26:23.900Z,25.07
2018-11-04T05:28:52.600Z,25.43
2018-11-04T05:31:21.460Z,25.73
2018-11-04T05:33:50.270Z,23.00
2018-11-04T05:36:18.969Z,26.10
2018-11-04T05:38:47.739Z,24.00
2018-11-04T05:41:16.467Z,24.63
2018-11-04T05:43:48.209Z,25.20
2018-11-04T05:46:16.907Z,23.73
2018-11-04T05:48:45.615Z,24.77
2018-11-04T05:51:14.339Z,23.38
2018-11-04T05:53:43.053Z,22.13
2018-11-04T05:56:11.752Z,23.83
2018-11-04T05:58:40.492Z,24.57
2018-11-04T06:01:09.212Z,24.55
2018-11-04T06:03:37.940Z,23.80
2018-11-04T06:06:06.654Z,22.80
2018-11-04T06:08:36.522Z,21.50
2018-11-04T06:11:05.345Z,27.57
2018-11-04T06:13:34.136Z,23.30
2018-11-04T06:16:02.892Z,23.37
2018-11-04T06:18:31.588Z,24.33
2018-11-04T06:21:00.307Z,23.47
2018-11-04T06:23:29.008Z,24.20
2018-11-04T06:25:57.723Z,22.50
2018-11-04T06:28:27.476Z,22.60
2018-11-04T06:30:56.207Z,22.43
2018-11-04T06:33:24.944Z,22.90
2018-11-04T06:35:53.721Z,22.00
2018-11-04T06:38:22.428Z,21.43
2018-11-04T06:40:51.155Z,22.17
2018-11-04T06:43:19.857Z,24.75
2018-11-04T06:45:48.591Z,22.47
2018-11-04T06:48:17.285Z,22.77
2018-11-04T06:50:46.076Z,22.10
2018-11-04T06:53:14.820Z,25.83
2018-11-04T06:55:43.632Z,26.33
2018-11-04T06:58:12.345Z,24.50
2018-11-04T07:00:41.041Z,27.48
2018-11-04T07:03:09.743Z,25.52
2018-11-04T07:05:38.480Z,26.50
2018-11-04T07:08:07.367Z,25.50
2018-11-04T07:10:36.095Z,26.80
2018-11-04T07:13:04.820Z,24.63
2018-11-04T07:15:33.588Z,27.90
2018-11-04T07:18:02.415Z,25.07
2018-11-04T07:20:31.215Z,27.87
2018-11-04T07:22:59.920Z,27.30
2018-11-04T07:25:28.656Z,27.87
2018-11-04T07:27:57.345Z,36.53
2018-11-04T07:30:26.048Z,25.87
2018-11-04T07:32:54.761Z,30.03
2018-11-04T07:35:23.676Z,34.45
2018-11-04T07:37:52.404Z,31.27
2018-11-04T07:40:21.118Z,33.33
2018-11-04T07:42:49.836Z,29.27
2018-11-04T07:45:18.555Z,32.47
2018-11-04T07:47:47.569Z,34.63
2018-11-04T07:50:16.311Z,28.70
2018-11-04T07:52:45.465Z,34.95
2018-11-04T07:55:14.157Z,31.40
2018-11-04T07:57:43.532Z,31.07
2018-11-04T08:00:36.891Z,30.92
2018-11-04T08:03:05.699Z,39.67
2018-11-04T08:05:43.451Z,33.03
2018-11-04T08:17:05.601Z,39.37
2018-11-04T08:19:34.341Z,42.50
2018-11-04T08:25:00.318Z,46.27
2018-11-04T08:27:29.036Z,38.40
2018-11-04T08:29:57.793Z,39.47
2018-11-04T08:32:26.659Z,40.20
2018-11-04T08:34:55.625Z,48.83
2018-11-04T08:37:25.124Z,47.60
2018-11-04T08:39:54.040Z,42.17
2018-11-04T08:42:22.670Z,42.63
2018-11-04T08:44:51.477Z,44.03
2018-11-04T08:47:20.204Z,53.73
2018-11-04T08:49:49.124Z,48.90
2018-11-04T08:52:17.859Z,57.38
2018-11-04T08:54:46.795Z,49.23
2018-11-04T08:57:15.507Z,46.60
2018-11-04T08:59:44.228Z,46.07
2018-11-04T09:02:12.965Z,53.60
2018-11-04T09:04:41.689Z,47.27
2018-11-04T09:07:10.517Z,44.88
2018-11-04T09:09:39.232Z,50.27
2018-11-04T09:12:07.937Z,47.43
2018-11-04T09:14:36.652Z,49.80
2018-11-04T09:17:05.928Z,49.33
2018-11-04T09:19:34.872Z,49.53
2018-11-04T09:22:03.849Z,51.53
2018-11-04T09:24:32.312Z,53.67
2018-11-04T09:27:01.048Z,49.47
2018-11-04T09:29:29.761Z,44.10
2018-11-04T09:31:58.479Z,49.77
2018-11-04T09:34:27.195Z,47.77
2018-11-04T09:36:55.913Z,46.73
2018-11-04T09:39:24.651Z,50.43
2018-11-04T09:41:53.384Z,55.90
2018-11-04T09:44:22.120Z,50.87
2018-11-04T09:46:50.843Z,51.00
2018-11-04T09:49:19.942Z,50.23
2018-11-04T09:51:48.649Z,53.53
2018-11-04T09:54:17.366Z,47.83
2018-11-04T09:56:46.105Z,55.87
2018-11-04T09:59:15.085Z,48.53
2018-11-04T10:01:43.853Z,48.23
2018-11-04T10:04:12.584Z,50.50
2018-11-04T10:06:41.294Z,52.33
2018-11-04T10:09:10.920Z,51.50
2018-11-04T10:11:39.984Z,48.23
2018-11-04T10:14:09.044Z,47.93
2018-11-04T10:16:38.187Z,49.10
2018-11-04T10:19:07.103Z,39.97
2018-11-04T10:21:35.644Z,43.50
2018-11-04T10:24:04.453Z,41.00
2018-11-04T10:26:33.241Z,43.47
2018-11-04T10:29:02.034Z,40.00
2018-11-04T10:31:30.996Z,43.67
2018-11-04T10:33:59.937Z,42.53
2018-11-04T10:36:28.644Z,44.57
2018-11-04T10:38:57.352Z,45.50
2018-11-04T10:41:26.324Z,44.00
2018-11-04T10:43:55.017Z,40.53
2018-11-04T10:46:23.723Z,45.33
2018-11-04T10:48:56.428Z,44.67
2018-11-04T10:51:25.172Z,44.33
2018-11-04T10:53:53.873Z,41.77
2018-11-04T10:56:22.639Z,40.83
2018-11-04T10:58:51.376Z,44.73
2018-11-04T11:01:20.063Z,41.25
2018-11-04T11:03:49.276Z,43.60
2018-11-04T11:06:17.992Z,43.75
2018-11-04T11:08:46.719Z,41.83
2018-11-04T11:11:15.427Z,40.38
2018-11-04T11:13:44.365Z,45.30
2018-11-04T11:16:13.051Z,42.63
2018-11-04T11:18:41.784Z,41.53
2018-11-04T11:21:10.492Z,38.43
2018-11-04T11:23:39.217Z,39.70
2018-11-04T11:26:08.104Z,43.43
2018-11-04T11:28:36.820Z,43.13
2018-11-04T11:31:05.560Z,40.17
2018-11-04T11:33:34.315Z,38.03
2018-11-04T11:36:03.911Z,37.60
2018-11-04T11:38:32.644Z,45.90
2018-11-04T11:41:01.380Z,41.87
2018-11-04T11:43:30.108Z,39.03
2018-11-04T11:45:58.830Z,44.55
2018-11-04T11:48:27.536Z,42.23
2018-11-04T11:50:56.274Z,41.30
2018-11-04T11:53:24.985Z,41.67
2018-11-04T11:55:53.800Z,37.10
2018-11-04T11:58:22.568Z,38.85
2018-11-04T12:00:51.520Z,36.40
2018-11-04T12:03:20.278Z,37.57
2018-11-04T12:05:48.986Z,38.87
2018-11-04T12:08:17.729Z,39.07
2018-11-04T12:10:46.448Z,36.87
2018-11-04T12:13:15.255Z,37.73
2018-11-04T12:15:44.245Z,38.23
2018-11-04T12:18:12.962Z,38.40
2018-11-04T12:20:41.672Z,36.87
2018-11-04T12:23:10.391Z,35.85
2018-11-04T12:25:39.139Z,38.17
2018-11-04T12:28:07.868Z,37.70
2018-11-04T12:30:36.672Z,35.77
2018-11-04T12:33:05.416Z,39.13
2018-11-04T12:35:34.168Z,36.73
2018-11-04T12:38:02.883Z,36.07
2018-11-04T12:40:31.594Z,36.23
2018-11-04T12:43:00.304Z,37.57
2018-11-04T12:45:29.027Z,35.33
2018-11-04T12:47:57.725Z,38.40
2018-11-04T12:50:26.441Z,35.47
2018-11-04T12:52:55.352Z,39.17
2018-11-04T12:55:24.049Z,39.05
2018-11-04T12:57:52.843Z,35.67
2018-11-04T13:00:21.557Z,36.17
2018-11-04T13:02:50.274Z,37.33
2018-11-04T13:05:18.982Z,35.33
2018-11-04T13:07:47.702Z,36.60
2018-11-04T13:10:16.764Z,40.00
2018-11-04T13:12:45.630Z,39.10
2018-11-04T13:15:14.994Z,40.38
2018-11-04T13:17:44.033Z,35.80
2018-11-04T13:20:13.048Z,42.17
2018-11-04T13:22:41.784Z,38.07
2018-11-04T13:25:10.831Z,41.85
2018-11-04T13:27:39.579Z,35.40
2018-11-04T13:30:09.608Z,38.67
2018-11-04T13:32:38.713Z,39.10
2018-11-04T13:35:07.461Z,37.63
2018-11-04T13:37:36.519Z,39.53
2018-11-04T13:40:08.151Z,38.15
2018-11-04T13:42:36.873Z,36.40
2018-11-04T13:45:06.276Z,39.67
2018-11-04T13:47:35.255Z,38.90
2018-11-04T13:50:04.264Z,38.78
2018-11-04T13:52:32.967Z,42.53
2018-11-04T13:55:01.677Z,40.38
2018-11-04T13:57:30.380Z,39.83
2018-11-04T13:59:59.095Z,49.20
2018-11-04T14:02:27.822Z,39.57
2018-11-04T14:04:56.536Z,40.43
2018-11-04T14:07:25.523Z,37.80
2018-11-04T14:09:54.247Z,39.57
2018-11-04T14:12:22.955Z,35.03
2018-11-04T14:14:51.664Z,36.73
2018-11-04T14:17:20.547Z,39.37
2018-11-04T14:19:49.258Z,36.67
2018-11-04T14:22:17.951Z,37.25
2018-11-04T14:24:53.328Z,39.73
2018-11-04T14:27:22.074Z,40.23
2018-11-04T14:29:50.785Z,36.83
2018-11-04T14:32:19.535Z,36.70
2018-11-04T14:34:48.246Z,37.15
2018-11-04T14:37:17.015Z,42.30
2018-11-04T14:39:45.814Z,38.70
2018-11-04T14:42:14.521Z,36.05
2018-11-04T14:44:43.259Z,36.47
2018-11-04T14:47:11.960Z,39.27
2018-11-04T14:49:40.744Z,41.90
2018-11-04T14:52:09.574Z,43.20
2018-11-04T14:54:38.300Z,38.53
2018-11-04T14:57:07.048Z,35.60
2018-11-04T14:59:36.013Z,38.97
2018-11-04T15:02:05.069Z,35.52
2018-11-04T15:04:33.770Z,39.50
2018-11-04T15:07:02.505Z,40.13
2018-11-04T15:09:31.209Z,41.27
2018-11-04T15:11:59.923Z,41.63
2018-11-04T15:14:28.653Z,27.00
2018-11-04T15:16:57.563Z,39.30
2018-11-04T15:19:26.297Z,41.33
2018-11-04T15:21:55.010Z,35.30
2018-11-04T15:24:23.720Z,35.92
2018-11-04T15:26:52.448Z,42.63
2018-11-04T15:29:21.168Z,40.00
2018-11-04T15:31:50.035Z,36.03
2018-11-04T15:34:18.846Z,40.20
2018-11-04T15:36:47.481Z,40.33
2018-11-04T15:39:16.175Z,38.97
2018-11-04T15:41:44.894Z,41.10
2018-11-04T15:44:13.833Z,40.05
2018-11-04T15:46:42.537Z,39.97
2018-11-04T15:49:11.533Z,39.25
2018-11-04T15:51:40.509Z,38.40
2018-11-04T15:54:09.237Z,36.73
2018-11-04T15:56:37.937Z,43.27
2018-11-04T15:59:07.505Z,49.20
2018-11-04T16:01:36.216Z,50.83
2018-11-04T16:04:05.117Z,48.40
2018-11-04T16:06:33.780Z,51.33
2018-11-04T16:09:02.603Z,49.83
2018-11-04T16:11:31.308Z,54.27
2018-11-04T16:14:00.140Z,49.30
2018-11-04T16:16:28.899Z,52.37
2018-11-04T16:18:57.627Z,52.45
2018-11-04T16:21:26.530Z,46.40
2018-11-04T16:23:55.380Z,49.33
2018-11-04T16:26:24.088Z,43.27
2018-11-04T16:28:53.184Z,45.23
2018-11-04T16:31:21.901Z,46.33
2018-11-04T16:33:50.615Z,47.37
2018-11-04T16:36:19.329Z,47.10
2018-11-04T16:38:48.048Z,46.57
2018-11-04T16:41:16.862Z,52.62
2018-11-04T16:43:45.768Z,48.07
2018-11-04T16:46:14.422Z,61.23
2018-11-04T16:48:43.196Z,54.83
2018-11-04T16:51:11.909Z,50.88
2018-11-04T16:53:40.620Z,47.93
2018-11-04T16:59:09.579Z,46.40
2018-11-04T17:01:38.288Z,52.30
2018-11-04T17:04:07.051Z,45.20
2018-11-04T17:06:36.117Z,45.35
2018-11-04T17:09:07.856Z,48.65
2018-11-04T17:11:36.708Z,45.27
2018-11-04T17:14:05.320Z,46.07
2018-11-04T17:16:34.045Z,51.13
2018-11-04T17:19:02.831Z,45.57
2018-11-04T17:21:31.633Z,47.20
2018-11-04T17:24:00.364Z,49.47
2018-11-04T17:26:29.183Z,46.87
2018-11-04T17:28:57.905Z,43.10
2018-11-04T17:31:26.860Z,45.87
2018-11-04T17:33:55.559Z,45.03
2018-11-04T17:36:24.324Z,50.37
2018-11-04T17:38:53.000Z,39.53
2018-11-04T17:41:21.904Z,45.20
2018-11-04T17:43:50.618Z,47.53
2018-11-04T17:46:19.333Z,46.20
2018-11-04T17:48:48.033Z,46.50
2018-11-04T17:51:16.776Z,49.60
2018-11-04T17:53:45.716Z,52.90
2018-11-04T17:56:14.468Z,52.03
2018-11-04T17:58:43.208Z,53.10
2018-11-04T18:01:11.917Z,46.40
2018-11-04T18:03:40.620Z,51.00
2018-11-04T18:06:09.605Z,52.70
2018-11-04T18:08:38.285Z,48.23
2018-11-04T18:11:07.014Z,49.80
2018-11-04T18:13:35.726Z,43.83
2018-11-04T18:16:04.912Z,52.03
2018-11-04T18:18:33.761Z,49.90
2018-11-04T18:21:02.492Z,50.52
2018-11-04T18:23:31.391Z,46.93
2018-11-04T18:26:00.150Z,50.17
2018-11-04T18:28:28.889Z,43.50
2018-11-04T18:30:57.598Z,52.90
2018-11-04T18:33:26.317Z,49.23
2018-11-04T18:35:55.026Z,51.00
2018-11-04T18:38:23.734Z,48.80
2018-11-04T18:40:52.473Z,49.53
2018-11-04T18:43:21.213Z,49.73
2018-11-04T18:45:50.007Z,54.30
2018-11-04T18:48:18.993Z,57.80
2018-11-04T18:50:47.859Z,51.57
2018-11-04T18:53:16.668Z,48.00
2018-11-04T18:55:45.448Z,50.30
2018-11-04T18:58:14.212Z,50.17
2018-11-04T19:00:43.037Z,52.33
2018-11-04T19:03:11.798Z,46.60
2018-11-04T19:05:40.697Z,55.83
2018-11-04T19:08:09.565Z,59.80
2018-11-04T19:10:38.292Z,63.00
2018-11-04T19:13:07.056Z,59.73
2018-11-04T19:15:36.073Z,56.00
2018-11-04T19:18:05.000Z,60.77
2018-11-04T19:20:33.935Z,49.37
2018-11-04T19:23:02.669Z,55.57
2018-11-04T19:25:31.644Z,58.13
2018-11-04T19:28:00.404Z,55.50
2018-11-04T19:30:29.152Z,49.70
2018-11-04T19:32:58.057Z,53.47
2018-11-04T19:35:26.797Z,58.13
2018-11-04T19:37:55.629Z,54.47
2018-11-04T19:40:24.444Z,54.70
2018-11-04T19:42:53.176Z,53.07
2018-11-04T19:45:22.297Z,52.45
2018-11-04T19:47:51.068Z,54.53
2018-11-04T19:50:19.836Z,56.10
2018-11-04T19:52:49.095Z,60.60
2018-11-04T19:55:17.860Z,51.48
2018-11-04T19:57:46.588Z,53.50
2018-11-04T20:00:15.322Z,54.87
2018-11-04T20:02:44.048Z,53.17
2018-11-04T20:05:13.273Z,57.97
2018-11-04T20:07:42.393Z,48.30
2018-11-04T20:10:13.219Z,49.10
2018-11-04T20:12:47.253Z,47.70
2018-11-04T20:15:16.169Z,53.47
2018-11-04T20:17:45.544Z,49.37
2018-11-04T20:20:16.459Z,50.67
2018-11-04T20:22:45.079Z,46.90
2018-11-04T20:25:19.218Z,49.83
2018-11-04T20:27:47.940Z,49.03
2018-11-04T20:30:16.683Z,47.48
2018-11-04T20:32:50.880Z,53.50
2018-11-04T20:35:19.612Z,50.08
2018-11-04T20:37:48.576Z,48.67
2018-11-04T20:40:22.536Z,44.83
2018-11-04T20:42:51.256Z,42.67
2018-11-04T20:45:20.003Z,46.73
2018-11-04T20:47:54.040Z,45.93
2018-11-04T20:50:28.148Z,47.05
2018-11-04T20:52:56.880Z,48.73
2018-11-04T20:55:29.764Z,52.30
2018-11-04T20:57:59.548Z,53.30
2018-11-04T21:00:28.621Z,51.30
2018-11-04T21:02:57.339Z,45.30
2018-11-04T21:05:32.772Z,51.20
2018-11-04T21:08:01.508Z,52.47
2018-11-04T21:10:30.237Z,51.97
2018-11-04T21:12:58.952Z,57.43
2018-11-04T21:15:27.689Z,44.40
2018-11-04T21:18:02.981Z,50.47
2018-11-04T21:20:31.925Z,47.40
2018-11-04T21:23:00.642Z,50.83
2018-11-04T21:25:29.467Z,52.50
2018-11-04T21:27:58.093Z,49.73
2018-11-04T21:30:26.805Z,48.00
2018-11-04T21:32:55.512Z,50.30
2018-11-04T21:35:24.248Z,41.13
2018-11-04T21:37:53.359Z,42.53
2018-11-04T21:40:22.159Z,41.63
2018-11-04T21:42:51.076Z,41.10
2018-11-04T21:45:19.863Z,45.52
2018-11-04T21:47:48.803Z,53.93
2018-11-04T21:50:17.575Z,42.50
2018-11-04T21:52:46.360Z,40.00
2018-11-04T21:55:15.101Z,43.90
2018-11-04T21:57:44.044Z,40.03
2018-11-04T22:00:15.110Z,41.90
2018-11-04T22:02:44.139Z,39.70
2018-11-04T22:05:12.875Z,41.47
2018-11-04T22:07:42.844Z,43.20
2018-11-04T22:10:14.666Z,37.83
2018-11-04T22:12:43.753Z,40.70
2018-11-04T22:15:12.724Z,35.90
2018-11-04T22:17:42.244Z,37.43
2018-11-04T22:20:12.141Z,36.57
2018-11-04T22:22:40.928Z,36.03
2018-11-04T22:25:10.874Z,38.40
2018-11-04T22:27:39.568Z,34.90
2018-11-04T22:30:09.565Z,40.80
2018-11-04T22:32:38.744Z,32.30
2018-11-04T22:35:08.660Z,38.27
2018-11-04T22:37:37.755Z,33.50
2018-11-04T22:40:07.321Z,33.87
2018-11-04T22:42:36.049Z,31.37
2018-11-04T22:45:06.787Z,25.80
2018-11-04T22:47:35.700Z,33.77
2018-11-04T22:50:06.868Z,33.65
2018-11-04T22:52:35.597Z,33.53
2018-11-04T22:55:04.708Z,28.10
2018-11-04T22:57:33.860Z,32.47
2018-11-04T23:00:02.579Z,28.17
2018-11-04T23:02:31.329Z,26.00
2018-11-04T23:05:05.485Z,25.73
2018-11-04T23:07:34.403Z,29.47
2018-11-04T23:10:03.377Z,33.67
2018-11-04T23:12:32.088Z,25.77
2018-11-04T23:15:00.824Z,28.38
2018-11-04T23:17:29.735Z,28.17
2018-11-04T23:19:58.449Z,28.90
2018-11-04T23:22:27.417Z,28.27
2018-11-04T23:24:56.112Z,25.93
2018-11-04T23:27:24.841Z,26.73
2018-11-04T23:29:53.544Z,32.53
2018-11-04T23:32:22.247Z,25.55
2018-11-04T23:34:50.971Z,28.73
2018-11-04T23:37:19.853Z,26.45
2018-11-04T23:39:48.700Z,29.37
2018-11-04T23:42:17.438Z,25.07
2018-11-04T23:44:46.159Z,24.00
2018-11-04T23:47:21.538Z,26.20
2018-11-04T23:49:50.619Z,30.90
2018-11-04T23:52:19.500Z,32.53
2018-11-04T23:54:48.211Z,24.90
2018-11-04T23:57:16.956Z,26.50
2018-11-04T23:59:45.672Z,25.83
